Hayase Maru — JD2583 — position and weather

sailwx.info

Track history (hours):
 
Tides and Currents Weather Stations Pressure Air Temp Water Temp Dewpoint Dewpoint Depression Visibility Wind Speed Wind Dir Waves Ship Positions

Hayase Maru

Last reported at 2015-Mar-31 01:14 UTC. Time now 2015-Apr-01 10:40 UTC.
Position N 34°57' E 139°26'.

Length 73 m; draft 2 m.

Type: Ship. MMSI: 431000395.

Date/timePositionNaut miles runAvg speedWind from/ knotsBaromVisibWave heightAir tempDewpointWater temp
2015-Mar-31 01:14N 34°57' E 139°26'811.6
2015-Mar-31 00:33N 35°02' E 139°34'1212.0
2015-Mar-30 23:33N 35°10' E 139°44'1111.1
2015-Mar-30 22:33N 35°21' E 139°42'8 8.0
2015-Mar-30 21:33N 35°22' E 139°52'1 1.3
2015-Mar-30 20:32N 35°22' E 139°54'0 0.0
2015-Mar-30 19:32N 35°22' E 139°54'0 0.0
2015-Mar-30 18:29N 35°22' E 139°54'0 0.0
2015-Mar-30 17:32N 35°22' E 139°54'0 0.0
2015-Mar-30 16:26N 35°22' E 139°54'0 0.0
2015-Mar-30 15:29N 35°22' E 139°54'0 0.0
2015-Mar-30 14:32N 35°22' E 139°54'0 0.0
2015-Mar-30 13:23N 35°22' E 139°54'0 0.0
2015-Mar-30 12:29N 35°22' E 139°54'0 0.0
2015-Mar-30 11:26N 35°22' E 139°54'0 0.0
2015-Mar-30 10:32N 35°22' E 139°54'0 0.0
2015-Mar-30 09:20N 35°22' E 139°54'1 0.8
2015-Mar-30 08:33N 35°22' E 139°53'1010.1
2015-Mar-30 07:33N 35°32' E 139°53'9 8.8
2015-Mar-30 06:33N 35°40' E 139°56'0 0.0
2015-Mar-30 05:31N 35°40' E 139°56'0 0.0
2015-Mar-30 04:31N 35°40' E 139°56'0 0.0
2015-Mar-30 03:19N 35°40' E 139°56'0 0.0
2015-Mar-30 02:31N 35°40' E 139°56'3 3.3
2015-Mar-30 01:34N 35°38' E 139°59'5 5.2
2015-Mar-30 00:33N 35°37' E 140°05'0 0.0
2015-Mar-29 23:21N 35°37' E 140°05'1 1.5
2015-Mar-29 22:33N 35°36' E 140°05'1 0.9
2015-Mar-29 21:28N 35°35' E 140°04'0 0.0
2015-Mar-29 20:22N 35°35' E 140°04'0 0.0
2015-Mar-29 19:22N 35°35' E 140°04'5 6.5
2015-Mar-29 18:33N 35°32' E 139°58'1110.9
2015-Mar-29 17:33N 35°25' E 139°48'10 9.8
2015-Mar-29 16:33N 35°16' E 139°47'1110.7
2015-Mar-29 15:33N 35°05' E 139°44'6311.4
2015-Mar-29 10:04N 34°34' E 138°37'  
2015-Mar-21 12:32N 34°41' E 134°46'1313.8
2015-Mar-21 11:33N 34°37' E 135°02'1211.6
2015-Mar-21 10:33N 34°25' E 135°02'1312.6
2015-Mar-21 09:33N 34°13' E 134°60'1211.7
2015-Mar-21 08:30N 34°01' E 135°01'  
Track history (hours):
 
Tides and Currents Weather Stations Pressure Air Temp Water Temp Dewpoint Dewpoint Depression Visibility Wind Speed Wind Dir Waves Ship Positions

Hayase Maru

Last reported at 2015-Mar-31 01:14 UTC. Time now 2015-Apr-01 10:40 UTC.
Position N 34°57' E 139°26'.

Length 73 m; draft 2 m.

Type: Ship. MMSI: 431000395.

Date/timePositionNaut miles runAvg speedWind from/ knotsBaromVisibWave heightAir tempDewpointWater temp
2015-Mar-31 01:14N 34°57' E 139°26'811.6
2015-Mar-31 00:33N 35°02' E 139°34'1212.0
2015-Mar-30 23:33N 35°10' E 139°44'1111.1
2015-Mar-30 22:33N 35°21' E 139°42'8 8.0
2015-Mar-30 21:33N 35°22' E 139°52'1 1.3
2015-Mar-30 20:32N 35°22' E 139°54'0 0.0
2015-Mar-30 19:32N 35°22' E 139°54'0 0.0
2015-Mar-30 18:29N 35°22' E 139°54'0 0.0
2015-Mar-30 17:32N 35°22' E 139°54'0 0.0
2015-Mar-30 16:26N 35°22' E 139°54'0 0.0
2015-Mar-30 15:29N 35°22' E 139°54'0 0.0
2015-Mar-30 14:32N 35°22' E 139°54'0 0.0
2015-Mar-30 13:23N 35°22' E 139°54'0 0.0
2015-Mar-30 12:29N 35°22' E 139°54'0 0.0
2015-Mar-30 11:26N 35°22' E 139°54'0 0.0
2015-Mar-30 10:32N 35°22' E 139°54'0 0.0
2015-Mar-30 09:20N 35°22' E 139°54'1 0.8
2015-Mar-30 08:33N 35°22' E 139°53'1010.1
2015-Mar-30 07:33N 35°32' E 139°53'9 8.8
2015-Mar-30 06:33N 35°40' E 139°56'0 0.0
2015-Mar-30 05:31N 35°40' E 139°56'0 0.0
2015-Mar-30 04:31N 35°40' E 139°56'0 0.0
2015-Mar-30 03:19N 35°40' E 139°56'0 0.0
2015-Mar-30 02:31N 35°40' E 139°56'3 3.3
2015-Mar-30 01:34N 35°38' E 139°59'5 5.2
2015-Mar-30 00:33N 35°37' E 140°05'0 0.0
2015-Mar-29 23:21N 35°37' E 140°05'1 1.5
2015-Mar-29 22:33N 35°36' E 140°05'1 0.9
2015-Mar-29 21:28N 35°35' E 140°04'0 0.0
2015-Mar-29 20:22N 35°35' E 140°04'0 0.0
2015-Mar-29 19:22N 35°35' E 140°04'5 6.5
2015-Mar-29 18:33N 35°32' E 139°58'1110.9
2015-Mar-29 17:33N 35°25' E 139°48'10 9.8
2015-Mar-29 16:33N 35°16' E 139°47'1110.7
2015-Mar-29 15:33N 35°05' E 139°44'6311.4
2015-Mar-29 10:04N 34°34' E 138°37'  
2015-Mar-21 12:32N 34°41' E 134°46'1313.8
2015-Mar-21 11:33N 34°37' E 135°02'1211.6
2015-Mar-21 10:33N 34°25' E 135°02'1312.6
2015-Mar-21 09:33N 34°13' E 134°60'1211.7
2015-Mar-21 08:30N 34°01' E 135°01'  

Dump ship's entire track history